Time;durP1;ratioP1;P1;durP2;ratioP2;P2;SDS_P1;SDS_P2;PMS_P1;PMS_P2;Temp;Humidity;BMP_temperature;BMP_pressure;BME280_temperature;BME280_humidity;BME280_pressure;Samples;Min_cycle;Max_cycle;Signal;HPM_P1;HPM_P2
2023/05/31 00:01:14;;;;;;;5.70;3.20;;;16.00;54.60;;;;;;5032339;28;20170;-67
2023/05/31 00:03:43;;;;;;;7.40;3.40;;;16.00;55.10;;;;;;5032243;28;20174;-68
2023/05/31 00:06:12;;;;;;;4.00;3.57;;;16.00;55.00;;;;;;5032165;28;20209;-67
2023/05/31 00:08:38;;;;;;;3.20;2.90;;;16.00;56.20;;;;;;5032048;28;20459;-67
2023/05/31 00:11:05;;;;;;;2.80;2.60;;;15.90;56.40;;;;;;5032329;28;20424;-67
2023/05/31 00:13:31;;;;;;;6.03;3.73;;;15.80;56.80;;;;;;5032187;28;20413;-68
2023/05/31 00:15:56;;;;;;;3.23;2.17;;;15.70;57.40;;;;;;5031927;28;20878;-68
2023/05/31 00:18:22;;;;;;;3.80;2.73;;;15.70;57.20;;;;;;5031837;28;20206;-67
2023/05/31 00:20:47;;;;;;;9.83;3.47;;;15.70;57.00;;;;;;5031989;28;20596;-68
2023/05/31 00:23:13;;;;;;;5.17;4.10;;;15.70;56.10;;;;;;5031954;28;20257;-67
2023/05/31 00:25:38;;;;;;;4.17;2.57;;;15.60;58.20;;;;;;5031864;28;20206;-67
2023/05/31 00:28:04;;;;;;;3.30;2.90;;;15.60;60.70;;;;;;5031895;28;20166;-68
2023/05/31 00:30:29;;;;;;;4.13;3.00;;;15.40;60.40;;;;;;5031661;28;20179;-68
2023/05/31 00:32:55;;;;;;;3.53;3.10;;;15.40;59.80;;;;;;5031886;28;20170;-67
2023/05/31 00:35:21;;;;;;;2.77;2.50;;;15.30;58.40;;;;;;5031828;28;20193;-68
2023/05/31 00:37:46;;;;;;;5.90;2.90;;;15.40;57.50;;;;;;5031983;28;20174;-67
2023/05/31 00:40:12;;;;;;;3.10;2.80;;;15.40;57.10;;;;;;5031549;28;20178;-68
2023/05/31 00:42:37;;;;;;;4.70;2.80;;;15.50;57.80;;;;;;5031713;28;20248;-68
2023/05/31 00:45:04;;;;;;;4.87;2.90;;;15.50;58.10;;;;;;5031368;28;20210;-67
2023/05/31 00:47:30;;;;;;;4.87;2.80;;;15.40;62.70;;;;;;5031602;28;20167;-67
2023/05/31 00:49:56;;;;;;;3.00;2.70;;;15.20;64.50;;;;;;5031627;28;20425;-68
2023/05/31 00:52:22;;;;;;;4.20;3.50;;;15.10;61.20;;;;;;5031721;28;20169;-67
2023/05/31 00:54:48;;;;;;;4.23;3.23;;;15.10;61.10;;;;;;5031552;28;20691;-67
2023/05/31 00:57:14;;;;;;;5.50;4.00;;;15.10;60.10;;;;;;5031768;28;20182;-68
2023/05/31 00:59:40;;;;;;;3.80;2.60;;;15.10;60.60;;;;;;5031378;28;20417;-68
2023/05/31 01:02:06;;;;;;;3.43;2.80;;;15.10;60.30;;;;;;5031517;28;20423;-68
2023/05/31 01:04:32;;;;;;;3.93;2.73;;;15.10;63.00;;;;;;5031459;28;21016;-67
2023/05/31 01:07:00;;;;;;;3.13;2.83;;;15.10;62.70;;;;;;5032390;28;20417;-68
2023/05/31 01:09:27;;;;;;;3.30;3.00;;;15.00;61.20;;;;;;5035236;28;20167;-68
2023/05/31 01:12:08;;;;;;;3.50;3.20;;;15.10;60.80;;;;;;5035648;28;20814;-67
2023/05/31 01:14:42;;;;;;;4.30;2.90;;;15.10;60.80;;;;;;5034937;28;20842;-69
2023/05/31 01:17:30;;;;;;;2.97;2.70;;;15.10;59.50;;;;;;5034289;28;20562;-68
2023/05/31 01:20:00;;;;;;;4.70;3.30;;;15.10;59.40;;;;;;5033800;28;20503;-67
2023/05/31 01:22:32;;;;;;;3.90;2.97;;;15.10;59.60;;;;;;5034082;28;20467;-67
2023/05/31 01:25:13;;;;;;;3.57;3.27;;;15.20;59.60;;;;;;5033755;28;20468;-67
2023/05/31 01:27:42;;;;;;;8.47;3.10;;;15.10;59.30;;;;;;5033739;28;20424;-68
2023/05/31 01:30:09;;;;;;;4.40;3.47;;;15.10;59.50;;;;;;5033580;28;20857;-68
2023/05/31 01:32:36;;;;;;;3.10;2.87;;;15.10;59.20;;;;;;5033856;28;20501;-67
2023/05/31 01:35:03;;;;;;;4.53;2.73;;;15.20;59.70;;;;;;5033753;28;20445;-68
2023/05/31 01:37:28;;;;;;;3.50;3.00;;;15.10;60.10;;;;;;5033731;28;20503;-68
2023/05/31 01:39:54;;;;;;;4.37;2.80;;;15.10;60.50;;;;;;5033467;28;20842;-69
2023/05/31 01:42:20;;;;;;;3.13;2.83;;;15.00;61.60;;;;;;5033761;28;20174;-68
2023/05/31 01:44:48;;;;;;;3.80;2.90;;;14.90;61.90;;;;;;5033534;28;21055;-67
2023/05/31 01:47:15;;;;;;;3.80;3.00;;;14.80;64.70;;;;;;5033637;28;20417;-68
2023/05/31 01:49:41;;;;;;;3.30;3.00;;;14.70;63.90;;;;;;5033350;28;20421;-68
2023/05/31 01:52:14;;;;;;;3.27;2.73;;;14.70;64.10;;;;;;5033779;28;20859;-69
2023/05/31 01:54:39;;;;;;;3.80;2.77;;;14.70;64.00;;;;;;5033518;28;20957;-68
2023/05/31 01:57:07;;;;;;;4.87;2.53;;;14.70;64.30;;;;;;5033454;28;20438;-68
2023/05/31 01:59:35;;;;;;;3.57;2.53;;;14.60;67.30;;;;;;5033049;28;20170;-68
2023/05/31 02:02:02;;;;;;;4.70;2.80;;;14.50;67.70;;;;;;5033459;28;20452;-68
2023/05/31 02:04:27;;;;;;;6.07;3.10;;;14.60;67.30;;;;;;5033082;28;20461;-67
2023/05/31 02:06:53;;;;;;;4.87;3.23;;;14.50;68.70;;;;;;5033676;28;20465;-68
2023/05/31 02:09:20;;;;;;;7.67;3.43;;;14.40;69.00;;;;;;5032993;28;20216;-69
2023/05/31 02:11:45;;;;;;;4.50;2.77;;;14.40;68.30;;;;;;5033245;28;20224;-68
2023/05/31 02:14:11;;;;;;;3.93;3.63;;;14.40;67.40;;;;;;4997579;28;1020962;-69
2023/05/31 02:16:36;;;;;;;3.73;3.07;;;14.40;68.50;;;;;;5034295;28;20201;-68
2023/05/31 02:19:03;;;;;;;5.63;3.00;;;14.30;76.30;;;;;;5033741;28;20171;-68
2023/05/31 02:21:28;;;;;;;4.40;3.47;;;14.20;74.00;;;;;;5034465;28;20182;-67
2023/05/31 02:23:54;;;;;;;3.83;2.63;;;14.20;75.60;;;;;;5034077;28;20440;-67
2023/05/31 02:26:21;;;;;;;6.43;3.07;;;14.10;80.10;;;;;;5034117;28;20284;-67
2023/05/31 02:28:47;;;;;;;5.10;2.50;;;14.00;81.20;;;;;;5033817;28;20185;-68
2023/05/31 02:31:12;;;;;;;5.73;3.20;;;13.90;81.80;;;;;;5034089;28;20413;-69
2023/05/31 02:33:41;;;;;;;3.10;2.80;;;13.80;80.70;;;;;;5033920;28;20170;-68
2023/05/31 02:36:08;;;;;;;7.20;3.13;;;13.80;82.10;;;;;;5034049;28;20205;-69
2023/05/31 02:38:33;;;;;;;4.30;2.70;;;13.80;83.20;;;;;;5033567;28;20969;-68
2023/05/31 02:40:59;;;;;;;4.70;3.00;;;13.70;82.90;;;;;;5033914;28;20445;-68
2023/05/31 02:43:24;;;;;;;4.60;3.57;;;13.70;88.30;;;;;;5033822;28;20241;-67
2023/05/31 02:45:50;;;;;;;4.03;2.73;;;13.70;89.40;;;;;;5015858;28;20206;-68
2023/05/31 02:48:16;;;;;;;3.93;3.07;;;13.70;90.20;;;;;;5033385;28;20217;-68
2023/05/31 02:50:41;;;;;;;3.87;2.90;;;13.60;91.50;;;;;;5033793;28;20167;-68
2023/05/31 02:53:07;;;;;;;4.07;2.83;;;13.60;92.90;;;;;;5033694;28;20538;-68
2023/05/31 02:55:33;;;;;;;4.63;3.47;;;13.50;91.20;;;;;;5033520;28;20197;-69
2023/05/31 02:57:59;;;;;;;3.47;2.83;;;13.60;92.20;;;;;;5033541;28;20184;-68
2023/05/31 03:00:25;;;;;;;3.73;2.37;;;13.50;93.20;;;;;;5033290;28;20420;-68
2023/05/31 03:02:51;;;;;;;3.07;2.77;;;13.50;93.70;;;;;;5033318;28;20417;-69
2023/05/31 03:05:17;;;;;;;4.77;2.70;;;13.40;95.60;;;;;;5033306;28;21255;-68
2023/05/31 03:07:42;;;;;;;3.70;2.53;;;13.30;95.30;;;;;;5033452;28;20572;-68
2023/05/31 03:10:08;;;;;;;3.10;2.90;;;13.30;98.50;;;;;;5033018;28;20159;-69
2023/05/31 03:12:34;;;;;;;7.10;3.60;;;13.30;98.40;;;;;;5033279;28;20655;-69
2023/05/31 03:15:00;;;;;;;3.23;2.93;;;13.30;97.30;;;;;;5033063;28;20288;-68
2023/05/31 03:17:25;;;;;;;2.63;2.40;;;13.20;98.80;;;;;;5033178;28;20182;-68
2023/05/31 03:19:51;;;;;;;3.37;3.07;;;13.10;99.30;;;;;;5033019;28;20171;-68
2023/05/31 03:22:16;;;;;;;2.80;2.60;;;13.10;98.50;;;;;;5033215;28;20550;-68
2023/05/31 03:24:42;;;;;;;3.30;2.70;;;13.10;99.20;;;;;;5032893;28;20202;-67
2023/05/31 03:27:08;;;;;;;3.50;2.80;;;13.10;98.00;;;;;;5033017;28;20197;-67
2023/05/31 03:29:38;;;;;;;3.60;3.30;;;13.10;99.00;;;;;;5014467;28;20177;-68
2023/05/31 03:32:04;;;;;;;7.27;3.20;;;13.10;99.90;;;;;;5032856;28;20171;-68
2023/05/31 03:34:30;;;;;;;4.27;2.70;;;13.10;99.90;;;;;;5032839;28;20437;-68
2023/05/31 03:36:55;;;;;;;5.40;2.87;;;13.10;98.90;;;;;;5032849;28;20417;-67
2023/05/31 03:39:21;;;;;;;4.07;2.83;;;13.20;98.70;;;;;;5032636;28;20178;-68
2023/05/31 03:41:46;;;;;;;3.27;2.53;;;13.30;97.90;;;;;;5032699;28;20181;-69
2023/05/31 03:44:12;;;;;;;3.20;2.90;;;13.30;98.60;;;;;;5032597;28;20228;-67
2023/05/31 03:46:37;;;;;;;6.27;2.43;;;13.30;98.80;;;;;;5032515;28;20166;-68
2023/05/31 03:49:05;;;;;;;5.20;3.20;;;13.30;99.90;;;;;;5032362;28;20173;-69
2023/05/31 03:51:31;;;;;;;5.70;3.50;;;13.20;99.90;;;;;;5032684;28;20181;-68
2023/05/31 03:53:56;;;;;;;5.03;2.63;;;13.20;99.90;;;;;;5032395;28;20413;-68
2023/05/31 03:56:22;;;;;;;4.77;2.77;;;13.10;99.90;;;;;;5032444;28;20174;-68
2023/05/31 03:58:48;;;;;;;4.37;2.73;;;13.10;99.90;;;;;;5032130;28;20588;-69
2023/05/31 04:01:13;;;;;;;4.53;3.10;;;13.20;99.90;;;;;;5032390;28;20178;-68
2023/05/31 04:03:39;;;;;;;3.30;2.50;;;13.30;99.90;;;;;;5032339;28;20181;-68
2023/05/31 04:06:05;;;;;;;3.07;2.77;;;13.30;99.90;;;;;;5032214;28;20716;-69
2023/05/31 04:08:30;;;;;;;5.47;3.40;;;13.40;99.90;;;;;;5031974;28;20171;-68
2023/05/31 04:10:56;;;;;;;3.50;2.60;;;13.50;99.90;;;;;;5032292;28;20174;-68
2023/05/31 04:13:21;;;;;;;8.27;3.20;;;13.60;99.90;;;;;;5032071;28;20606;-68
2023/05/31 04:15:47;;;;;;;5.10;3.40;;;13.70;99.90;;;;;;5031863;28;20279;-67
2023/05/31 04:18:12;;;;;;;7.07;3.40;;;13.80;99.90;;;;;;5031660;28;20178;-68
2023/05/31 04:20:38;;;;;;;11.43;4.97;;;13.80;99.90;;;;;;5031939;28;20231;-69
2023/05/31 04:23:03;;;;;;;5.93;3.93;;;13.80;99.90;;;;;;5031995;28;20181;-68
2023/05/31 04:25:29;;;;;;;4.40;3.77;;;13.90;99.90;;;;;;5031673;28;20676;-68
2023/05/31 04:27:56;;;;;;;6.13;3.70;;;13.90;99.90;;;;;;5031860;28;20185;-69
2023/05/31 04:30:23;;;;;;;4.90;3.77;;;14.10;99.90;;;;;;5031520;28;20166;-69
2023/05/31 04:32:51;;;;;;;5.10;3.20;;;14.20;99.90;;;;;;5031821;28;21150;-68
2023/05/31 04:35:17;;;;;;;3.70;2.73;;;14.40;99.90;;;;;;5031784;28;20448;-68
2023/05/31 04:37:42;;;;;;;3.20;2.90;;;14.50;99.90;;;;;;5031829;28;20471;-68
2023/05/31 04:40:11;;;;;;;4.43;2.87;;;14.50;99.90;;;;;;5031450;28;20170;-69
2023/05/31 04:42:37;;;;;;;3.57;3.27;;;14.70;99.90;;;;;;5030711;28;20178;-69
2023/05/31 04:45:07;;;;;;;5.80;3.80;;;14.80;99.90;;;;;;5031555;28;20465;-69
2023/05/31 04:47:35;;;;;;;4.73;3.90;;;15.00;99.90;;;;;;5031626;28;20173;-69
2023/05/31 04:50:00;;;;;;;8.93;3.67;;;15.20;99.90;;;;;;5031357;28;20499;-68
2023/05/31 04:52:29;;;;;;;5.63;3.17;;;15.30;99.90;;;;;;5031650;28;20500;-68
2023/05/31 04:54:55;;;;;;;3.97;3.03;;;15.40;99.90;;;;;;5031536;28;20225;-68
2023/05/31 04:57:22;;;;;;;4.03;3.60;;;15.50;99.90;;;;;;5031552;28;20421;-68
2023/05/31 04:59:47;;;;;;;3.83;3.50;;;15.50;99.40;;;;;;5031160;28;20518;-68
2023/05/31 05:02:13;;;;;;;5.53;3.53;;;15.70;99.90;;;;;;5031715;28;20432;-68
2023/05/31 05:04:39;;;;;;;7.00;3.57;;;15.80;99.70;;;;;;5031353;28;20579;-68
2023/05/31 05:07:05;;;;;;;3.93;3.50;;;16.00;98.10;;;;;;5031604;28;20182;-69
2023/05/31 05:09:30;;;;;;;5.57;4.37;;;16.10;97.30;;;;;;5031137;28;20311;-69
2023/05/31 05:11:56;;;;;;;5.60;3.27;;;16.20;95.10;;;;;;5031446;28;20416;-68
2023/05/31 05:14:22;;;;;;;4.37;3.10;;;16.30;94.20;;;;;;5031697;28;20683;-68
2023/05/31 05:16:47;;;;;;;3.17;2.83;;;16.40;94.60;;;;;;5013766;28;20229;-67
2023/05/31 05:19:13;;;;;;;4.30;3.23;;;16.60;93.60;;;;;;5031001;28;20174;-67
2023/05/31 05:21:38;;;;;;;5.60;4.07;;;16.70;92.60;;;;;;5031515;28;20178;-67
2023/05/31 05:24:04;;;;;;;3.30;3.10;;;16.90;92.20;;;;;;5031309;28;20198;-67
2023/05/31 05:26:29;;;;;;;6.07;3.20;;;17.00;91.50;;;;;;5031289;28;20198;-67
2023/05/31 05:28:55;;;;;;;3.50;2.97;;;17.10;90.40;;;;;;5031128;28;20166;-68
2023/05/31 05:31:20;;;;;;;3.33;3.03;;;17.20;90.50;;;;;;5031564;28;20296;-68
2023/05/31 05:33:46;;;;;;;6.43;3.33;;;17.40;89.50;;;;;;5031332;28;20233;-68
2023/05/31 05:36:12;;;;;;;3.90;2.27;;;17.40;87.20;;;;;;5031311;28;20209;-67
2023/05/31 05:38:37;;;;;;;4.60;2.90;;;17.50;85.90;;;;;;5031011;28;20253;-67
2023/05/31 05:41:03;;;;;;;6.63;4.10;;;17.60;86.40;;;;;;5031123;28;20632;-67
2023/05/31 05:43:30;;;;;;;6.57;3.10;;;17.70;85.00;;;;;;5031294;28;20178;-68
2023/05/31 05:45:55;;;;;;;4.50;3.40;;;17.80;83.40;;;;;;5031098;28;20671;-68
2023/05/31 05:48:21;;;;;;;3.60;2.83;;;17.90;82.40;;;;;;5030933;28;20409;-68
2023/05/31 05:50:47;;;;;;;7.10;3.07;;;18.00;82.20;;;;;;5031164;28;20523;-67
2023/05/31 05:53:12;;;;;;;5.20;2.90;;;18.10;81.00;;;;;;5032254;28;20166;-67
2023/05/31 05:55:38;;;;;;;6.23;3.57;;;18.20;80.50;;;;;;5034364;28;20659;-67
2023/05/31 05:58:03;;;;;;;4.77;2.97;;;18.30;79.80;;;;;;5034652;28;20181;-67
2023/05/31 06:00:29;;;;;;;6.90;3.53;;;18.40;79.20;;;;;;5034453;28;20185;-68
2023/05/31 06:02:55;;;;;;;3.50;3.00;;;18.40;78.50;;;;;;5034676;28;20182;-68
2023/05/31 06:05:25;;;;;;;3.27;2.90;;;18.50;78.50;;;;;;5034441;28;20237;-67
2023/05/31 06:07:53;;;;;;;4.27;2.63;;;18.60;76.80;;;;;;5034235;28;20181;-68
2023/05/31 06:10:19;;;;;;;9.13;4.60;;;18.60;76.50;;;;;;5033957;28;20531;-68
2023/05/31 06:12:45;;;;;;;5.93;3.83;;;18.70;76.10;;;;;;5034472;28;20938;-68
2023/05/31 06:15:10;;;;;;;3.73;3.00;;;18.80;75.60;;;;;;5034121;28;20679;-68
2023/05/31 06:17:36;;;;;;;3.63;3.27;;;18.90;75.20;;;;;;5033031;28;20206;-67
2023/05/31 06:20:05;;;;;;;5.63;3.33;;;19.10;73.50;;;;;;5033544;28;20212;-68
2023/05/31 06:22:30;;;;;;;4.80;3.20;;;19.20;73.70;;;;;;5034192;28;20178;-67
2023/05/31 06:24:57;;;;;;;7.30;3.43;;;19.30;73.70;;;;;;5033837;28;20553;-68
2023/05/31 06:27:23;;;;;;;4.50;2.97;;;19.30;73.60;;;;;;5034354;28;20166;-68
2023/05/31 06:29:54;;;;;;;6.03;2.97;;;19.30;73.20;;;;;;5033494;28;20448;-68
2023/05/31 06:32:20;;;;;;;6.90;3.63;;;19.40;72.50;;;;;;5034206;28;20599;-67
2023/05/31 06:34:46;;;;;;;8.50;3.13;;;19.40;72.40;;;;;;5033892;28;20530;-68
2023/05/31 06:37:12;;;;;;;6.60;3.20;;;19.50;73.00;;;;;;5033773;28;20918;-67
2023/05/31 06:39:37;;;;;;;4.43;3.20;;;19.60;72.20;;;;;;5033780;28;20261;-68
2023/05/31 06:42:03;;;;;;;3.53;3.03;;;19.70;71.70;;;;;;5034015;28;20181;-67
2023/05/31 06:44:28;;;;;;;6.50;3.83;;;19.80;71.00;;;;;;5033619;28;20205;-68
2023/05/31 06:46:54;;;;;;;5.20;3.27;;;19.80;71.30;;;;;;5033841;28;20206;-67
2023/05/31 06:49:19;;;;;;;4.63;3.37;;;19.90;70.20;;;;;;5033427;28;20163;-68
2023/05/31 06:51:45;;;;;;;11.07;3.23;;;20.00;70.70;;;;;;5033700;28;20593;-68
2023/05/31 06:54:10;;;;;;;5.13;3.30;;;20.20;71.00;;;;;;5033655;28;20744;-68
2023/05/31 06:56:36;;;;;;;8.03;3.50;;;20.30;70.00;;;;;;5033671;28;20174;-68
2023/05/31 06:59:01;;;;;;;3.20;2.70;;;20.40;69.50;;;;;;5033325;28;20524;-68
2023/05/31 07:01:28;;;;;;;4.40;3.60;;;20.50;67.80;;;;;;5033569;28;20177;-67
2023/05/31 07:03:54;;;;;;;4.83;2.80;;;20.50;68.60;;;;;;5033156;28;20170;-67
2023/05/31 07:06:19;;;;;;;3.83;3.40;;;20.70;69.20;;;;;;5032725;28;20467;-67
2023/05/31 07:08:46;;;;;;;5.60;3.80;;;20.80;68.40;;;;;;5033031;28;20167;-67
2023/05/31 07:11:12;;;;;;;5.37;2.93;;;20.90;67.80;;;;;;5033384;28;20169;-68
2023/05/31 07:13:37;;;;;;;4.43;3.20;;;21.00;67.20;;;;;;5033220;28;20504;-68
2023/05/31 07:16:03;;;;;;;5.13;3.10;;;21.00;67.30;;;;;;5033056;28;20524;-68
2023/05/31 07:18:29;;;;;;;4.60;3.20;;;21.10;66.40;;;;;;5032804;28;20178;-68
2023/05/31 07:20:56;;;;;;;6.60;4.00;;;21.30;66.90;;;;;;5033123;28;20170;-68
2023/05/31 07:23:23;;;;;;;5.10;3.20;;;21.40;65.30;;;;;;5032934;28;20421;-68
2023/05/31 07:25:49;;;;;;;4.33;3.60;;;21.40;65.60;;;;;;5032855;28;20467;-68
2023/05/31 07:28:14;;;;;;;6.87;3.80;;;21.50;64.80;;;;;;5032781;28;20417;-68
2023/05/31 07:30:40;;;;;;;5.87;3.90;;;21.60;65.80;;;;;;5032715;28;20166;-68
2023/05/31 07:33:05;;;;;;;5.67;2.67;;;21.70;65.10;;;;;;5032794;28;20186;-67
2023/05/31 07:35:30;;;;;;;3.37;3.07;;;21.70;64.10;;;;;;5032796;28;20186;-67
2023/05/31 07:37:56;;;;;;;5.67;3.50;;;21.80;64.60;;;;;;5032763;28;20546;-68
2023/05/31 07:40:22;;;;;;;8.60;3.53;;;22.00;64.40;;;;;;5032374;28;20181;-67
2023/05/31 07:42:47;;;;;;;5.97;3.53;;;22.10;63.70;;;;;;5032901;28;20174;-68
2023/05/31 07:45:13;;;;;;;7.27;3.50;;;22.30;64.30;;;;;;5032576;28;20570;-68
2023/05/31 07:47:38;;;;;;;5.33;3.63;;;22.40;63.90;;;;;;5032642;28;20305;-68
2023/05/31 07:50:04;;;;;;;4.87;3.63;;;22.50;62.60;;;;;;5032335;28;20201;-68
2023/05/31 07:52:30;;;;;;;5.20;3.50;;;22.70;62.40;;;;;;5032452;28;20174;-68
2023/05/31 07:54:55;;;;;;;7.20;3.43;;;22.70;62.40;;;;;;5032331;28;20445;-68
2023/05/31 07:57:22;;;;;;;4.73;3.57;;;22.90;60.40;;;;;;5032428;28;20170;-68
2023/05/31 07:59:50;;;;;;;7.17;3.37;;;23.00;60.00;;;;;;5032050;28;20166;-68
2023/05/31 08:02:16;;;;;;;8.40;3.93;;;23.00;59.80;;;;;;5032415;28;20417;-68
2023/05/31 08:04:41;;;;;;;5.73;3.13;;;23.00;60.10;;;;;;5032142;28;20456;-68
2023/05/31 08:07:07;;;;;;;4.73;4.03;;;23.00;59.90;;;;;;5032253;28;20248;-67
2023/05/31 08:09:32;;;;;;;4.43;3.30;;;23.00;59.50;;;;;;5031811;28;20628;-68
2023/05/31 08:11:58;;;;;;;3.07;2.70;;;23.00;60.30;;;;;;5032250;28;20171;-68
2023/05/31 08:14:23;;;;;;;5.90;3.37;;;23.20;59.70;;;;;;5031995;28;20205;-68
2023/05/31 08:16:49;;;;;;;6.60;3.50;;;23.40;59.20;;;;;;5031899;28;20162;-67
2023/05/31 08:19:15;;;;;;;3.50;3.20;;;23.40;59.10;;;;;;5031773;28;20173;-68
2023/05/31 08:21:40;;;;;;;3.60;3.30;;;23.40;58.60;;;;;;5032073;28;20632;-68
2023/05/31 08:24:06;;;;;;;5.37;3.27;;;23.00;59.40;;;;;;5014172;28;20415;-68
2023/05/31 08:26:33;;;;;;;4.17;3.30;;;23.10;60.20;;;;;;5032012;28;20201;-67
2023/05/31 08:28:58;;;;;;;5.97;3.70;;;23.40;59.30;;;;;;5031788;28;20291;-67
2023/05/31 08:31:24;;;;;;;4.17;3.77;;;23.60;58.70;;;;;;5032113;28;20448;-67
2023/05/31 08:33:58;;;;;;;5.30;3.83;;;23.70;58.50;;;;;;5032070;28;20181;-68
2023/05/31 08:36:23;;;;;;;5.43;3.13;;;23.70;58.30;;;;;;5031907;28;20178;-68
2023/05/31 08:38:49;;;;;;;7.00;3.63;;;23.70;58.10;;;;;;5031599;28;20429;-68
2023/05/31 08:41:17;;;;;;;5.43;3.50;;;23.90;58.00;;;;;;5032064;28;20174;-67
2023/05/31 08:43:45;;;;;;;5.50;3.60;;;23.90;58.10;;;;;;5031745;28;20432;-67
2023/05/31 08:46:11;;;;;;;9.47;4.07;;;23.90;57.50;;;;;;5031623;28;20472;-68
2023/05/31 08:48:43;;;;;;;8.50;4.00;;;24.00;57.80;;;;;;5031453;28;20803;-68
2023/05/31 08:51:09;;;;;;;3.53;3.10;;;24.00;57.10;;;;;;5031616;28;20452;-68
2023/05/31 08:53:35;;;;;;;4.40;4.00;;;23.90;57.80;;;;;;5031613;28;20413;-67
2023/05/31 08:56:01;;;;;;;7.27;4.10;;;24.10;57.30;;;;;;5031556;28;20818;-67
2023/05/31 08:58:28;;;;;;;5.77;3.60;;;24.20;57.50;;;;;;5031245;28;20416;-67
2023/05/31 09:00:54;;;;;;;4.37;3.97;;;24.20;56.80;;;;;;5031682;28;20466;-68
2023/05/31 09:03:22;;;;;;;5.60;3.30;;;24.20;56.70;;;;;;5031590;28;20482;-68
2023/05/31 09:05:47;;;;;;;4.40;3.20;;;24.30;56.40;;;;;;5031232;28;20202;-68
2023/05/31 09:08:13;;;;;;;6.17;3.53;;;24.50;56.40;;;;;;5031213;28;20470;-67
2023/05/31 09:10:40;;;;;;;4.20;3.80;;;24.70;56.30;;;;;;5031708;28;20170;-68
2023/05/31 09:13:06;;;;;;;7.07;3.77;;;24.80;56.40;;;;;;5031483;28;20185;-68
2023/05/31 09:15:32;;;;;;;4.10;3.10;;;24.90;56.60;;;;;;5031343;28;20460;-68
2023/05/31 09:18:11;;;;;;;5.50;3.30;;;25.20;56.60;;;;;;5031429;28;20474;-68
2023/05/31 09:20:36;;;;;;;4.33;3.10;;;25.50;55.70;;;;;;5031312;28;20490;-67
2023/05/31 09:23:03;;;;;;;5.23;3.20;;;25.50;54.80;;;;;;5031571;28;20456;-68
2023/05/31 09:25:51;;;;;;;4.43;3.63;;;25.80;54.40;;;;;;5031186;28;20697;-67
2023/05/31 09:28:22;;;;;;;5.67;3.87;;;26.00;54.40;;;;;;5032454;28;20460;-68
2023/05/31 09:31:06;;;;;;;8.00;3.57;;;26.10;53.40;;;;;;5035109;28;20432;-68
2023/05/31 09:33:41;;;;;;;7.33;4.47;;;26.20;53.10;;;;;;5035269;28;20547;-68
2023/05/31 09:36:07;;;;;;;5.43;3.20;;;26.40;52.60;;;;;;5035092;28;20442;-68
2023/05/31 09:38:34;;;;;;;5.03;4.17;;;26.50;51.90;;;;;;5034738;28;20425;-68
2023/05/31 09:41:14;;;;;;;4.20;3.37;;;26.80;52.30;;;;;;5034970;28;20421;-68
2023/05/31 09:43:44;;;;;;;4.87;2.87;;;27.20;51.70;;;;;;5035131;28;20428;-68
2023/05/31 09:46:15;;;;;;;9.27;4.10;;;27.50;50.20;;;;;;5034653;28;20461;-68
2023/05/31 09:48:42;;;;;;;10.20;3.80;;;27.50;49.10;;;;;;5034470;28;20623;-68
2023/05/31 09:51:12;;;;;;;4.37;3.97;;;27.80;48.60;;;;;;5034767;28;20515;-68
2023/05/31 09:53:43;;;;;;;5.10;3.33;;;28.00;48.30;;;;;;5034740;28;20419;-69
2023/05/31 09:56:18;;;;;;;4.30;3.83;;;28.70;47.80;;;;;;5034747;28;20448;-68
2023/05/31 09:58:44;;;;;;;7.17;3.40;;;29.30;47.30;;;;;;5034584;28;20499;-68
2023/05/31 10:01:09;;;;;;;4.90;3.80;;;29.00;47.50;;;;;;5034795;28;20499;-68
2023/05/31 10:03:36;;;;;;;3.50;3.20;;;29.60;46.40;;;;;;5034618;28;20636;-68
2023/05/31 10:06:02;;;;;;;6.53;3.47;;;30.10;46.30;;;;;;5034411;28;20671;-68
2023/05/31 10:08:28;;;;;;;3.80;3.27;;;30.90;46.10;;;;;;5034295;28;20748;-68
2023/05/31 10:10:56;;;;;;;7.60;3.73;;;31.70;45.70;;;;;;5034851;28;20504;-68
2023/05/31 10:13:26;;;;;;;7.03;3.27;;;31.70;45.00;;;;;;5034458;28;20170;-69
2023/05/31 10:15:55;;;;;;;5.13;3.17;;;32.00;44.00;;;;;;5034156;28;20506;-68
2023/05/31 10:18:25;;;;;;;4.10;3.70;;;32.10;43.30;;;;;;5033916;28;20445;-68
2023/05/31 10:21:02;;;;;;;3.40;3.10;;;32.40;42.50;;;;;;5034254;28;20421;-69
2023/05/31 10:23:29;;;;;;;5.73;3.40;;;31.70;42.90;;;;;;5034152;28;20413;-69
2023/05/31 10:26:06;;;;;;;19.87;4.10;;;31.50;42.60;;;;;;5034052;28;20467;-69
2023/05/31 10:28:37;;;;;;;5.00;3.40;;;32.20;42.80;;;;;;5033842;28;20417;-68
2023/05/31 10:31:03;;;;;;;7.53;3.27;;;33.40;42.50;;;;;;5034032;28;20478;-68
2023/05/31 10:33:30;;;;;;;3.60;3.20;;;33.90;40.30;;;;;;5033934;28;20420;-69
2023/05/31 10:36:00;;;;;;;4.30;3.80;;;33.80;39.60;;;;;;5033838;28;21030;-68
2023/05/31 10:38:35;;;;;;;4.87;3.97;;;34.30;39.00;;;;;;5033553;28;20432;-68
2023/05/31 10:41:09;;;;;;;3.67;3.37;;;34.60;38.20;;;;;;5033916;28;20419;-68
2023/05/31 10:44:00;;;;;;;4.40;3.40;;;34.20;38.30;;;;;;5033801;28;20452;-68
2023/05/31 10:46:27;;;;;;;3.90;3.60;;;34.60;37.60;;;;;;5022852;28;20556;-68
2023/05/31 10:48:59;;;;;;;3.97;3.67;;;35.60;41.50;;;;;;5033309;28;20421;-68
2023/05/31 10:51:38;;;;;;;6.80;3.30;;;35.60;41.30;;;;;;5033648;28;20427;-68
2023/05/31 10:54:03;;;;;;;7.20;4.20;;;35.80;41.10;;;;;;5033446;28;20490;-68
2023/05/31 10:56:29;;;;;;;4.47;3.40;;;35.70;39.90;;;;;;5033762;28;20926;-69
2023/05/31 10:58:55;;;;;;;6.17;3.30;;;36.80;39.90;;;;;;5033307;28;20236;-69
2023/05/31 11:01:21;;;;;;;3.80;3.40;;;36.70;37.90;;;;;;5033503;28;20177;-69
2023/05/31 11:03:51;;;;;;;6.13;3.87;;;36.30;38.40;;;;;;5033461;28;20944;-69
2023/05/31 11:06:22;;;;;;;4.97;4.10;;;36.20;38.20;;;;;;5033284;28;20197;-68
2023/05/31 11:08:58;;;;;;;7.23;2.97;;;36.30;37.30;;;;;;5033213;28;20409;-68
2023/05/31 11:11:33;;;;;;;7.77;3.80;;;35.70;37.70;;;;;;5033489;28;20431;-68
2023/05/31 11:14:00;;;;;;;5.30;3.43;;;36.50;37.30;;;;;;5033052;28;20852;-68
2023/05/31 11:16:27;;;;;;;6.00;3.50;;;37.50;36.10;;;;;;5033664;28;20474;-68
2023/05/31 11:19:13;;;;;;;5.20;3.93;;;37.60;35.40;;;;;;5032933;28;20852;-69
2023/05/31 11:21:45;;;;;;;4.87;3.67;;;36.90;34.80;;;;;;5033063;28;20916;-67
2023/05/31 11:24:24;;;;;;;6.17;3.47;;;36.80;34.40;;;;;;5033089;28;20441;-68
2023/05/31 11:26:53;;;;;;;5.00;3.60;;;35.90;34.80;;;;;;5033153;28;20440;-69
2023/05/31 11:29:19;;;;;;;2.87;2.67;;;36.80;34.80;;;;;;5032818;28;20445;-67
2023/05/31 11:31:58;;;;;;;4.80;3.83;;;37.40;33.70;;;;;;5032918;28;20911;-68
2023/05/31 11:34:29;;;;;;;4.93;4.37;;;38.10;33.40;;;;;;5033162;28;20194;-69
2023/05/31 11:36:57;;;;;;;3.60;3.23;;;38.50;31.80;;;;;;5032967;28;20429;-68
2023/05/31 11:39:23;;;;;;;3.93;3.13;;;39.20;31.20;;;;;;5032582;28;20429;-67
2023/05/31 11:41:48;;;;;;;5.60;3.20;;;38.90;31.20;;;;;;5032706;28;20429;-68
2023/05/31 11:44:20;;;;;;;4.30;3.30;;;39.10;31.20;;;;;;5032629;28;20543;-67
2023/05/31 11:46:49;;;;;;;3.93;3.50;;;38.60;31.00;;;;;;5032576;28;20202;-68
2023/05/31 11:49:14;;;;;;;3.70;3.40;;;39.60;30.90;;;;;;5032277;28;20478;-67
2023/05/31 11:51:44;;;;;;;4.03;3.70;;;39.50;29.70;;;;;;5032203;28;20801;-68
2023/05/31 11:54:11;;;;;;;6.93;3.70;;;39.40;29.90;;;;;;5032353;28;20190;-69
2023/05/31 11:56:37;;;;;;;6.90;3.30;;;39.70;29.70;;;;;;5014694;28;20436;-68
2023/05/31 11:59:03;;;;;;;7.77;3.37;;;40.00;30.20;;;;;;5032151;28;20425;-68
2023/05/31 12:01:35;;;;;;;3.13;2.83;;;39.60;30.10;;;;;;5032297;28;20179;-68
2023/05/31 12:04:01;;;;;;;5.03;3.37;;;39.70;30.50;;;;;;5032372;28;20424;-68
2023/05/31 12:06:28;;;;;;;2.97;2.63;;;39.60;30.30;;;;;;5032325;28;20456;-68
2023/05/31 12:08:54;;;;;;;7.00;3.40;;;40.60;30.60;;;;;;5032000;28;20170;-68
2023/05/31 12:11:21;;;;;;;4.73;3.60;;;39.60;30.50;;;;;;5032250;28;20910;-68
2023/05/31 12:13:47;;;;;;;4.97;3.00;;;38.80;30.70;;;;;;5032208;28;20502;-68
2023/05/31 12:16:12;;;;;;;3.93;3.20;;;39.70;30.00;;;;;;5031972;28;20496;-68
2023/05/31 12:18:38;;;;;;;4.80;3.07;;;39.90;29.50;;;;;;5031903;28;20966;-68
2023/05/31 12:21:08;;;;;;;3.73;2.93;;;38.30;30.10;;;;;;5032053;28;20174;-68
2023/05/31 12:23:54;;;;;;;3.30;2.80;;;38.20;30.70;;;;;;5031961;28;20269;-68
2023/05/31 12:26:21;;;;;;;6.10;2.80;;;39.20;30.00;;;;;;5031967;28;20488;-67
2023/05/31 12:28:47;;;;;;;5.73;2.67;;;40.10;29.40;;;;;;5031695;28;20953;-68
2023/05/31 12:31:23;;;;;;;3.83;3.33;;;40.30;29.40;;;;;;5031888;28;20414;-68
2023/05/31 12:34:10;;;;;;;3.83;2.97;;;40.20;29.30;;;;;;5031873;28;20181;-68
2023/05/31 12:36:40;;;;;;;3.73;3.30;;;38.90;29.20;;;;;;5031839;28;20425;-68
2023/05/31 12:39:12;;;;;;;3.43;3.20;;;39.50;29.10;;;;;;5031466;28;20416;-68
2023/05/31 12:41:42;;;;;;;3.83;2.93;;;39.50;29.50;;;;;;5031805;28;20786;-68
2023/05/31 12:44:08;;;;;;;4.90;2.97;;;40.20;28.70;;;;;;5031673;28;20427;-67
2023/05/31 12:46:38;;;;;;;3.30;3.00;;;39.80;28.40;;;;;;5031599;28;20461;-68